Adak, AK (99546)

5:01 AM HDT on July 30, 2016 (GMT -0900)
Adak | | Change Station

Elev 13 ft 51.88 °N, 176.65 °W | Updated 5 minutes ago

Overcast
Overcast
52 °F
Feels Like 52 °F
N
18
Wind Variable Wind from WSW

Today
High -- | Low -- °F
--% Chance of Precip.
Yesterday
High -- | Low -- °F
Precip. -- in
Pressure 30.07 in
Visibility 8.0 miles
Clouds Mostly Cloudy 400 ft
Overcast 1100 ft
Dew Point 43 °F
Humidity 71%
Rainfall 0.00 in
Snow Depth Not available.
7:07 AM 10:37 PM
Waning Crescent, 13% visible
METAR PADK 301356Z AUTO 25016KT 8SM BKN004 OVC011 11/06 A3007 RMK AO1
Pressure 30.07 in
Visibility 8.0 miles
Clouds Mostly Cloudy 400 ft
Overcast 1100 ft
Dew Point 43 °F
Humidity 71%
Rainfall 0.00 in
Snow Depth Not available.
7:07 AM 10:37 PM
Waning Crescent, 13% visible
METAR PADK 301356Z AUTO 25016KT 8SM BKN004 OVC011 11/06 A3007 RMK AO1

10-Day Weather Forecast

Almanac

Astronomy

Jul. 30, 2016 Rise Set
Actual Time
Civil Twilight
Nautical Twilight
Astronomical Twilight
Moon
Length of Visible Light
Length of Day
Tomorrow will be .
, % of the Moon is Illuminated

Today's Extremes

State Highs State Lows

Community

WunderPhotos

Upload Photos

1,928,564 photos uploaded!

WunderBlog® & News

Nearby

Air Quality

  Air Quality AQ Index Pollutant
Not available.

Snow Depth

Station Depth Elevation

Earthquake Activity

City Distance Mag. Time & Date
Minimum magnitude displayed is 2.5.

Coastal Water Temperatures

Place Temperature

Stations

Nearby Weather Stations

Station Location Temp. Windchill Dew Point Humidity Wind Precip. Elev Updated Type
                   

Watches & Warnings

There are currently no watches in effect.